createdAt,value
2022-08-23T00:02:02.613Z,5.40
2022-08-23T00:04:39.651Z,5.90
2022-08-23T00:07:24.053Z,5.30
2022-08-23T00:09:51.750Z,5.10
2022-08-23T00:12:22.324Z,4.70
2022-08-23T00:14:53.943Z,4.80
2022-08-23T00:17:34.508Z,5.30
2022-08-23T00:20:08.785Z,5.40
2022-08-23T00:22:39.622Z,6.50
2022-08-23T00:25:10.165Z,6.10
2022-08-23T00:27:38.018Z,6.60
2022-08-23T00:30:10.302Z,5.10
2022-08-23T00:32:39.382Z,4.60
2022-08-23T00:35:10.871Z,5.10
2022-08-23T00:37:39.317Z,5.40
2022-08-23T00:40:09.776Z,5.40
2022-08-23T00:43:01.264Z,4.80
2022-08-23T00:46:04.210Z,5.00
2022-08-23T00:48:34.690Z,5.40
2022-08-23T00:51:27.729Z,4.60
2022-08-23T00:54:01.333Z,4.40
2022-08-23T00:56:33.784Z,4.40
2022-08-23T00:59:01.362Z,5.10
2022-08-23T01:01:29.058Z,5.30
2022-08-23T01:04:04.270Z,5.40
2022-08-23T01:06:44.446Z,4.90
2022-08-23T01:09:16.576Z,4.70
2022-08-23T01:12:15.579Z,4.30
2022-08-23T01:15:02.358Z,4.70
2022-08-23T01:17:43.269Z,4.60
2022-08-23T01:20:17.270Z,5.30
2022-08-23T01:23:06.954Z,5.30
2022-08-23T01:25:34.547Z,5.70
2022-08-23T01:28:02.032Z,5.40
2022-08-23T01:30:32.960Z,4.90
2022-08-23T01:33:05.341Z,5.10
2022-08-23T01:35:41.025Z,5.10
2022-08-23T01:38:09.804Z,4.90
2022-08-23T01:40:37.978Z,5.60
2022-08-23T01:43:06.673Z,5.60
2022-08-23T01:45:35.357Z,5.90
2022-08-23T01:48:03.524Z,5.40
2022-08-23T01:50:31.771Z,5.80
2022-08-23T01:53:00.273Z,5.10
2022-08-23T01:55:29.288Z,5.10
2022-08-23T01:58:00.009Z,6.10
2022-08-23T02:00:33.583Z,5.60
2022-08-23T02:03:02.322Z,6.00
2022-08-23T02:05:31.299Z,6.30
2022-08-23T02:08:18.821Z,5.90
2022-08-23T02:10:46.693Z,5.60
2022-08-23T02:13:15.103Z,5.40
2022-08-23T02:18:12.341Z,5.20
2022-08-23T02:20:49.268Z,6.00
2022-08-23T02:23:18.200Z,5.90
2022-08-23T02:25:45.349Z,6.30
2022-08-23T02:28:12.744Z,5.50
2022-08-23T02:30:40.110Z,5.60
2022-08-23T02:38:08.577Z,5.50
2022-08-23T02:40:37.450Z,5.80
2022-08-23T02:43:06.976Z,5.90
2022-08-23T02:45:36.572Z,5.70
2022-08-23T02:48:07.691Z,5.40
2022-08-23T02:50:42.353Z,5.00
2022-08-23T02:53:09.629Z,5.40
2022-08-23T02:55:38.108Z,5.80
2022-08-23T02:58:05.548Z,5.90
2022-08-23T03:00:32.764Z,6.50
2022-08-23T03:03:00.050Z,6.30
2022-08-23T03:05:27.501Z,6.30
2022-08-23T03:07:55.254Z,5.80
2022-08-23T03:10:22.922Z,5.00
2022-08-23T03:12:54.994Z,5.60
2022-08-23T03:15:22.806Z,5.80
2022-08-23T03:17:50.623Z,6.20
2022-08-23T03:20:18.796Z,6.50
2022-08-23T03:22:48.369Z,5.80
2022-08-23T03:25:22.801Z,6.00
2022-08-23T03:28:32.874Z,5.40
2022-08-23T03:31:00.137Z,5.80
2022-08-23T03:33:27.482Z,5.80
2022-08-23T03:35:59.995Z,6.50
2022-08-23T03:38:27.515Z,6.00
2022-08-23T03:40:54.875Z,6.90
2022-08-23T03:43:24.264Z,6.10
2022-08-23T03:45:51.828Z,5.70
2022-08-23T03:48:20.104Z,7.10
2022-08-23T03:50:47.965Z,7.90
2022-08-23T03:53:15.973Z,7.80
2022-08-23T03:55:44.540Z,7.50
2022-08-23T03:58:14.855Z,6.20
2022-08-23T04:00:42.719Z,6.10
2022-08-23T04:03:10.281Z,5.50
2022-08-23T04:05:51.867Z,6.40
2022-08-23T04:08:31.851Z,6.10
2022-08-23T04:11:02.094Z,6.20
2022-08-23T04:13:30.245Z,6.70
2022-08-23T04:15:58.614Z,5.50
2022-08-23T04:18:26.175Z,5.70
2022-08-23T04:20:53.604Z,5.50
2022-08-23T04:23:22.213Z,6.20
2022-08-23T04:25:53.536Z,6.50
2022-08-23T04:28:22.159Z,7.10
2022-08-23T04:30:51.140Z,7.80
2022-08-23T04:33:19.182Z,6.30
2022-08-23T04:35:48.718Z,6.70
2022-08-23T04:38:24.913Z,7.00
2022-08-23T04:41:17.514Z,6.90
2022-08-23T04:43:46.572Z,6.60
2022-08-23T04:46:15.174Z,6.40
2022-08-23T04:48:44.625Z,6.40
2022-08-23T04:51:13.067Z,6.20
2022-08-23T04:53:41.594Z,5.60
2022-08-23T04:56:51.845Z,5.70
2022-08-23T04:59:20.474Z,6.30
2022-08-23T05:01:50.340Z,7.20
2022-08-23T05:04:17.954Z,7.60
2022-08-23T05:06:45.588Z,7.20
2022-08-23T05:09:17.119Z,6.50
2022-08-23T05:11:49.068Z,6.60
2022-08-23T05:14:17.042Z,7.00
2022-08-23T05:16:45.003Z,7.20
2022-08-23T05:19:12.457Z,7.10
2022-08-23T05:21:44.118Z,7.60
2022-08-23T05:24:13.761Z,8.20
2022-08-23T05:26:42.889Z,7.10
2022-08-23T05:29:10.849Z,7.90
2022-08-23T05:31:46.274Z,9.00
2022-08-23T05:34:15.798Z,8.80
2022-08-23T05:36:55.729Z,12.70
2022-08-23T05:39:36.163Z,16.30
2022-08-23T05:42:09.214Z,15.50
2022-08-23T05:44:37.353Z,15.50
2022-08-23T05:47:10.512Z,14.70
2022-08-23T05:50:17.169Z,12.80
2022-08-23T05:52:49.023Z,13.10
2022-08-23T05:55:18.765Z,13.00
2022-08-23T05:57:57.267Z,9.70
2022-08-23T06:00:28.392Z,9.80
2022-08-23T06:03:08.648Z,8.70
2022-08-23T06:05:41.378Z,6.90
2022-08-23T06:08:08.621Z,5.80
2022-08-23T06:10:40.497Z,5.90
2022-08-23T06:13:21.572Z,6.60
2022-08-23T06:15:49.253Z,6.50
2022-08-23T06:18:16.397Z,6.00
2022-08-23T06:20:43.742Z,6.00
2022-08-23T06:23:17.193Z,6.30
2022-08-23T06:25:45.017Z,5.40
2022-08-23T06:28:15.119Z,5.70
2022-08-23T06:30:43.044Z,6.30
2022-08-23T06:33:26.796Z,5.90
2022-08-23T06:36:50.007Z,6.30
2022-08-23T06:39:37.633Z,6.30
2022-08-23T06:42:45.193Z,6.10
2022-08-23T06:45:13.946Z,6.20
2022-08-23T06:47:42.726Z,5.50
2022-08-23T06:50:10.913Z,6.00
2022-08-23T06:52:56.886Z,6.50
2022-08-23T06:55:35.980Z,6.30
2022-08-23T06:58:27.730Z,6.50
2022-08-23T07:01:54.709Z,6.50
2022-08-23T07:04:35.126Z,5.90
2022-08-23T07:07:15.860Z,6.00
2022-08-23T07:09:43.482Z,6.10
2022-08-23T07:12:11.446Z,6.90
2022-08-23T07:14:42.029Z,6.60
2022-08-23T07:17:09.294Z,6.70
2022-08-23T07:19:36.521Z,6.70
2022-08-23T07:22:05.766Z,7.10
2022-08-23T07:24:33.918Z,6.30
2022-08-23T07:27:09.136Z,7.00
2022-08-23T07:29:45.716Z,6.80
2022-08-23T07:32:13.315Z,6.00
2022-08-23T07:34:40.489Z,6.00
2022-08-23T07:37:11.226Z,6.70
2022-08-23T07:39:44.146Z,7.00
2022-08-23T07:42:22.848Z,6.10
2022-08-23T07:44:53.296Z,7.90
2022-08-23T07:47:22.542Z,7.70
2022-08-23T07:49:50.593Z,7.50
2022-08-23T07:52:18.058Z,7.10
2022-08-23T07:54:49.465Z,7.00
2022-08-23T07:57:37.825Z,7.30
2022-08-23T08:00:11.574Z,7.20
2022-08-23T08:02:53.000Z,7.10
2022-08-23T08:05:25.801Z,7.30
2022-08-23T08:07:53.277Z,8.10
2022-08-23T08:10:20.617Z,7.40
2022-08-23T08:12:48.162Z,7.00
2022-08-23T08:15:19.209Z,8.40
2022-08-23T08:17:51.085Z,7.00
2022-08-23T08:20:19.800Z,8.10
2022-08-23T08:23:05.993Z,6.80
2022-08-23T08:26:08.536Z,7.60
2022-08-23T08:28:37.460Z,8.10
2022-08-23T08:31:09.083Z,7.00
2022-08-23T08:33:36.722Z,8.20
2022-08-23T08:36:06.343Z,7.40
2022-08-23T08:38:50.292Z,8.10
2022-08-23T08:41:28.923Z,7.40
2022-08-23T08:44:23.630Z,8.60
2022-08-23T08:46:58.835Z,8.50
2022-08-23T08:50:14.125Z,7.50
2022-08-23T08:53:13.117Z,8.10
2022-08-23T08:56:39.493Z,7.90
2022-08-23T08:59:38.710Z,7.60
2022-08-23T09:02:16.931Z,8.00
2022-08-23T09:04:57.886Z,8.70
2022-08-23T09:07:56.642Z,8.00
2022-08-23T09:10:35.611Z,8.00
2022-08-23T09:13:53.168Z,8.20
2022-08-23T09:16:32.413Z,8.50
2022-08-23T09:19:02.927Z,8.00
2022-08-23T09:21:46.934Z,8.00
2022-08-23T09:24:14.730Z,7.70
2022-08-23T09:26:53.696Z,8.40
2022-08-23T09:29:27.214Z,7.90
2022-08-23T09:32:01.914Z,8.40
2022-08-23T09:34:30.438Z,8.30
2022-08-23T09:37:22.487Z,8.30
2022-08-23T09:40:12.408Z,7.00
2022-08-23T09:42:41.774Z,7.90
2022-08-23T09:45:37.159Z,8.00
2022-08-23T09:48:11.569Z,7.70
2022-08-23T09:50:54.351Z,7.40
2022-08-23T09:53:29.449Z,6.80
2022-08-23T09:56:11.265Z,7.20
2022-08-23T09:58:53.293Z,7.50
2022-08-23T10:01:38.892Z,8.90
2022-08-23T10:04:11.792Z,8.70
2022-08-23T10:06:41.550Z,9.20
2022-08-23T10:09:21.224Z,7.50
2022-08-23T10:11:49.216Z,8.60
2022-08-23T10:14:20.944Z,7.90
2022-08-23T10:17:33.764Z,9.10
2022-08-23T10:20:37.545Z,9.60
2022-08-23T10:23:50.390Z,8.70
2022-08-23T10:26:34.757Z,7.00
2022-08-23T10:29:29.793Z,8.40
2022-08-23T10:32:15.252Z,8.70
2022-08-23T10:35:26.166Z,7.60
2022-08-23T10:38:30.206Z,8.40
2022-08-23T10:41:32.544Z,7.20
2022-08-23T10:45:05.605Z,7.70
2022-08-23T10:47:43.983Z,7.80
2022-08-23T10:50:20.400Z,8.10
2022-08-23T10:53:10.456Z,7.40
2022-08-23T10:56:02.414Z,7.70
2022-08-23T10:59:00.616Z,7.60
2022-08-23T11:01:50.701Z,8.00
2022-08-23T11:04:43.096Z,7.70
2022-08-23T11:07:25.494Z,7.10
2022-08-23T11:10:16.298Z,8.20
2022-08-23T11:13:10.645Z,7.60
2022-08-23T11:15:58.822Z,7.00
2022-08-23T11:18:48.485Z,7.60
2022-08-23T11:21:33.054Z,9.50
2022-08-23T11:24:03.784Z,7.20
2022-08-23T11:26:37.625Z,8.70
2022-08-23T11:29:10.324Z,7.80
2022-08-23T11:31:58.128Z,8.70
2022-08-23T11:34:57.384Z,8.50
2022-08-23T11:37:30.677Z,8.90
2022-08-23T11:40:07.735Z,9.00
2022-08-23T11:42:38.420Z,8.60
2022-08-23T11:45:27.024Z,9.00
2022-08-23T11:48:43.492Z,8.50
2022-08-23T11:52:00.496Z,8.00
2022-08-23T11:55:17.052Z,9.10
2022-08-23T11:58:23.804Z,9.70
2022-08-23T12:00:55.129Z,8.40
2022-08-23T12:03:33.260Z,8.40
2022-08-23T12:06:35.346Z,8.60
2022-08-23T12:09:15.179Z,9.90
2022-08-23T12:11:57.108Z,8.30
2022-08-23T12:14:30.401Z,9.20
2022-08-23T12:17:29.752Z,7.80
2022-08-23T12:20:16.523Z,8.40
2022-08-23T12:22:59.645Z,8.70
2022-08-23T12:25:29.955Z,8.60
2022-08-23T12:28:07.132Z,8.00
2022-08-23T12:31:07.825Z,8.00
2022-08-23T12:34:19.649Z,8.80
2022-08-23T12:36:59.192Z,8.50
2022-08-23T12:39:40.719Z,9.30
2022-08-23T12:42:17.824Z,8.90
2022-08-23T12:44:57.522Z,7.60
2022-08-23T12:47:24.882Z,7.90
2022-08-23T12:50:06.005Z,9.00
2022-08-23T12:52:36.801Z,7.40
2022-08-23T12:55:16.377Z,8.60
2022-08-23T12:57:53.905Z,8.00
2022-08-23T13:00:33.918Z,9.70
2022-08-23T13:03:14.097Z,7.20
2022-08-23T13:05:47.990Z,9.30
2022-08-23T13:08:34.198Z,8.30
2022-08-23T13:11:08.058Z,8.80
2022-08-23T13:13:40.884Z,8.90
2022-08-23T13:16:44.194Z,8.60
2022-08-23T13:19:27.496Z,9.10
2022-08-23T13:22:23.188Z,8.10
2022-08-23T13:25:29.130Z,7.50
2022-08-23T13:28:20.358Z,8.30
2022-08-23T13:31:07.570Z,7.00
2022-08-23T13:33:35.320Z,8.10
2022-08-23T13:36:17.020Z,7.40
2022-08-23T13:38:44.985Z,8.80
2022-08-23T13:41:38.801Z,7.80
2022-08-23T13:44:08.582Z,7.80
2022-08-23T13:46:44.841Z,8.40
2022-08-23T13:49:28.049Z,7.30
2022-08-23T13:52:24.581Z,7.80
2022-08-23T13:54:51.354Z,7.60
2022-08-23T13:57:21.722Z,7.70
2022-08-23T13:59:55.543Z,8.20
2022-08-23T14:02:24.927Z,8.30
2022-08-23T14:04:52.826Z,7.60
2022-08-23T14:07:20.865Z,8.20
2022-08-23T14:09:51.992Z,8.60
2022-08-23T14:12:25.405Z,8.00
2022-08-23T14:15:00.281Z,7.60
2022-08-23T14:17:28.182Z,7.60
2022-08-23T14:20:32.987Z,7.80
2022-08-23T14:22:43.484Z,9.50
2022-08-23T14:25:12.292Z,7.90
2022-08-23T14:27:43.140Z,8.00
2022-08-23T14:30:36.266Z,8.20
2022-08-23T14:33:06.308Z,7.90
2022-08-23T14:35:33.755Z,7.70
2022-08-23T14:38:04.010Z,8.50
2022-08-23T14:40:35.851Z,8.10
2022-08-23T14:43:05.368Z,7.80
2022-08-23T14:45:33.003Z,7.90
2022-08-23T14:48:01.659Z,7.80
2022-08-23T14:50:29.372Z,7.20
2022-08-23T14:52:57.490Z,8.00
2022-08-23T14:55:25.283Z,8.00
2022-08-23T14:57:53.136Z,7.90
2022-08-23T15:00:20.719Z,7.60
2022-08-23T15:02:49.700Z,6.50
2022-08-23T15:05:17.863Z,8.40
2022-08-23T15:07:45.639Z,8.70
2022-08-23T15:13:20.009Z,6.90
2022-08-23T15:15:52.607Z,7.30
2022-08-23T15:18:20.414Z,7.90
2022-08-23T15:20:49.010Z,7.50
2022-08-23T15:23:20.486Z,7.10
2022-08-23T15:25:47.713Z,7.20
2022-08-23T15:28:18.697Z,7.40
2022-08-23T15:30:48.736Z,7.00
2022-08-23T15:33:16.101Z,6.30
2022-08-23T15:35:48.992Z,6.80
2022-08-23T15:38:21.229Z,5.60
2022-08-23T15:40:51.026Z,5.30
2022-08-23T15:43:20.789Z,5.30
2022-08-23T15:45:48.884Z,6.70
2022-08-23T15:48:22.451Z,5.80
2022-08-23T15:50:50.108Z,5.90
2022-08-23T15:53:21.196Z,5.70
2022-08-23T15:55:49.133Z,6.30
2022-08-23T15:58:22.476Z,5.40
2022-08-23T16:00:51.455Z,5.70
2022-08-23T16:03:21.474Z,5.80
2022-08-23T16:05:53.213Z,5.70
2022-08-23T16:08:41.052Z,6.50
2022-08-23T16:11:12.368Z,5.60
2022-08-23T16:13:43.306Z,6.30
2022-08-23T16:16:26.466Z,5.20
2022-08-23T16:18:55.125Z,5.90
2022-08-23T16:21:25.010Z,6.50
2022-08-23T16:23:55.053Z,5.10
2022-08-23T16:26:33.514Z,5.90
2022-08-23T16:29:07.843Z,4.90
2022-08-23T16:31:38.729Z,5.30
2022-08-23T16:34:14.271Z,5.40
2022-08-23T16:36:47.248Z,5.90
2022-08-23T16:39:16.764Z,6.50
2022-08-23T16:41:44.527Z,6.30
2022-08-23T16:44:12.181Z,5.20
2022-08-23T16:46:42.313Z,5.70
2022-08-23T16:49:12.735Z,5.60
2022-08-23T16:51:40.993Z,5.40
2022-08-23T16:54:09.109Z,5.80
2022-08-23T16:56:38.582Z,5.70
2022-08-23T16:59:09.619Z,5.00
2022-08-23T17:01:47.631Z,5.70
2022-08-23T17:04:17.074Z,5.90
2022-08-23T17:06:46.025Z,5.30
2022-08-23T17:09:13.673Z,5.40
2022-08-23T17:11:43.489Z,5.00
2022-08-23T17:14:12.488Z,6.20
2022-08-23T17:16:41.847Z,5.90
2022-08-23T17:19:11.391Z,5.40
2022-08-23T17:21:40.014Z,5.00
2022-08-23T17:26:35.737Z,4.90
2022-08-23T17:29:04.266Z,5.00
2022-08-23T17:31:31.661Z,5.70
2022-08-23T17:34:02.913Z,5.40
2022-08-23T17:36:33.930Z,5.00
2022-08-23T17:39:05.681Z,6.00
2022-08-23T17:41:35.246Z,5.80
2022-08-23T17:44:05.561Z,6.10
2022-08-23T17:46:41.737Z,6.40
2022-08-23T17:49:10.783Z,5.50
2022-08-23T17:51:42.840Z,4.90
2022-08-23T17:54:16.016Z,5.30
2022-08-23T17:56:49.936Z,5.80
2022-08-23T17:59:19.591Z,5.60
2022-08-23T18:01:47.312Z,5.30
2022-08-23T18:04:14.928Z,5.40
2022-08-23T18:06:42.633Z,6.00
2022-08-23T18:09:10.596Z,5.30
2022-08-23T18:11:38.598Z,6.60
2022-08-23T18:14:06.130Z,4.70
2022-08-23T18:16:35.795Z,5.20
2022-08-23T18:19:07.109Z,5.70
2022-08-23T18:21:40.290Z,5.60
2022-08-23T18:24:08.942Z,5.00
2022-08-23T18:26:55.153Z,6.10
2022-08-23T18:29:23.837Z,5.40
2022-08-23T18:31:51.511Z,6.30
2022-08-23T18:34:19.313Z,6.10
2022-08-23T18:36:47.043Z,6.20
2022-08-23T18:39:15.846Z,6.30
2022-08-23T18:41:43.201Z,5.40
2022-08-23T18:44:11.498Z,4.50
2022-08-23T18:46:41.879Z,5.60
2022-08-23T18:49:11.481Z,6.80
2022-08-23T18:51:41.021Z,6.70
2022-08-23T18:54:09.359Z,6.30
2022-08-23T18:56:37.028Z,6.10
2022-08-23T18:59:06.358Z,6.40
2022-08-23T19:01:39.298Z,6.50
2022-08-23T19:04:09.155Z,6.30
2022-08-23T19:06:37.372Z,7.20
2022-08-23T19:09:06.491Z,7.10
2022-08-23T19:11:34.664Z,6.60
2022-08-23T19:14:01.826Z,6.70
2022-08-23T19:16:30.699Z,5.80
2022-08-23T19:18:58.670Z,5.80
2022-08-23T19:21:26.956Z,8.20
2022-08-23T19:23:56.757Z,6.20
2022-08-23T19:26:31.422Z,6.60
2022-08-23T19:29:00.826Z,6.50
2022-08-23T19:31:33.837Z,7.40
2022-08-23T19:34:03.876Z,6.00
2022-08-23T19:36:45.729Z,6.00
2022-08-23T19:39:14.861Z,6.10
2022-08-23T19:41:42.242Z,8.80
2022-08-23T19:44:10.091Z,7.10
2022-08-23T19:46:40.843Z,6.20
2022-08-23T19:49:11.267Z,8.60
2022-08-23T19:51:39.377Z,6.00
2022-08-23T19:54:11.424Z,6.40
2022-08-23T19:56:48.251Z,7.00
2022-08-23T19:59:25.053Z,7.40
2022-08-23T20:01:55.102Z,7.00
2022-08-23T20:04:24.161Z,6.30
2022-08-23T20:06:51.727Z,7.20
2022-08-23T20:09:21.873Z,6.60
2022-08-23T20:11:52.301Z,7.80
2022-08-23T20:14:21.490Z,6.90
2022-08-23T20:16:49.979Z,8.40
2022-08-23T20:19:17.401Z,6.80
2022-08-23T20:21:44.971Z,6.90
2022-08-23T20:24:14.770Z,7.10
2022-08-23T20:26:49.670Z,7.70
2022-08-23T20:29:21.703Z,8.20
2022-08-23T20:31:59.825Z,7.80
2022-08-23T20:34:30.233Z,7.60
2022-08-23T20:36:58.130Z,7.40
2022-08-23T20:39:25.739Z,6.50
2022-08-23T20:41:54.422Z,7.40
2022-08-23T20:44:25.418Z,6.50
2022-08-23T20:46:54.886Z,7.20
2022-08-23T20:49:25.794Z,6.80
2022-08-23T20:51:53.970Z,6.50
2022-08-23T20:54:21.638Z,6.40
2022-08-23T20:56:51.414Z,7.50
2022-08-23T20:59:19.304Z,7.30
2022-08-23T21:01:48.184Z,6.80
2022-08-23T21:04:16.893Z,9.40
2022-08-23T21:06:51.813Z,7.50
2022-08-23T21:09:24.688Z,7.30
2022-08-23T21:11:57.377Z,10.00
2022-08-23T21:14:25.146Z,7.60
2022-08-23T21:16:52.301Z,6.70
2022-08-23T21:19:20.433Z,8.30
2022-08-23T21:21:48.532Z,6.90
2022-08-23T21:24:15.796Z,7.00
2022-08-23T21:26:43.153Z,6.50
2022-08-23T21:29:10.808Z,7.10
2022-08-23T21:31:39.359Z,6.80
2022-08-23T21:34:07.979Z,7.10
2022-08-23T21:36:36.159Z,7.90
2022-08-23T21:39:04.836Z,6.40
2022-08-23T21:41:43.028Z,8.20
2022-08-23T21:44:18.280Z,7.10
2022-08-23T21:46:47.366Z,7.00
2022-08-23T21:49:15.723Z,6.90
2022-08-23T21:51:44.484Z,7.00
2022-08-23T21:54:13.639Z,7.60
2022-08-23T21:59:14.077Z,6.90
2022-08-23T22:01:42.521Z,6.70
2022-08-23T22:04:12.714Z,6.60
2022-08-23T22:06:42.907Z,6.90
2022-08-23T22:09:15.270Z,6.80
2022-08-23T22:11:44.478Z,7.30
2022-08-23T22:14:17.150Z,6.90
2022-08-23T22:16:44.305Z,7.60
2022-08-23T22:19:14.938Z,6.00
2022-08-23T22:21:45.830Z,7.30
2022-08-23T22:24:13.686Z,8.40
2022-08-23T22:26:42.359Z,7.20
2022-08-23T22:29:11.144Z,6.60
2022-08-23T22:31:39.322Z,6.90
2022-08-23T22:34:09.399Z,7.70
2022-08-23T22:36:36.760Z,6.00
2022-08-23T22:39:04.821Z,6.00
2022-08-23T22:41:32.691Z,7.50
2022-08-23T22:44:02.278Z,5.60
2022-08-23T22:46:33.206Z,4.70
2022-08-23T22:49:01.211Z,5.10
2022-08-23T22:51:32.254Z,4.60
2022-08-23T22:54:07.490Z,5.00
2022-08-23T22:56:44.183Z,5.10
2022-08-23T22:59:12.474Z,5.00
2022-08-23T23:01:44.487Z,4.50
2022-08-23T23:04:13.713Z,3.20
2022-08-23T23:06:41.760Z,3.40
2022-08-23T23:09:10.973Z,3.80
2022-08-23T23:11:40.325Z,3.40
2022-08-23T23:14:10.911Z,3.50
2022-08-23T23:16:38.955Z,3.10
2022-08-23T23:19:24.966Z,3.70
2022-08-23T23:21:55.519Z,3.30
2022-08-23T23:24:33.589Z,3.30
2022-08-23T23:27:01.971Z,4.40
2022-08-23T23:29:31.722Z,3.40
2022-08-23T23:31:59.137Z,3.20
2022-08-23T23:34:27.870Z,3.40
2022-08-23T23:36:59.488Z,3.20
2022-08-23T23:39:27.647Z,3.20
2022-08-23T23:41:55.709Z,3.40
2022-08-23T23:44:29.891Z,3.40
2022-08-23T23:47:01.638Z,3.80
2022-08-23T23:49:33.008Z,3.50
2022-08-23T23:52:04.508Z,3.00
2022-08-23T23:54:33.493Z,3.20
2022-08-23T23:57:01.798Z,3.80
2022-08-23T23:59:29.224Z,3.20
